createdAt,value
2019-02-18T00:01:22.906Z,8.20
2019-02-18T00:03:52.841Z,9.40
2019-02-18T00:06:22.734Z,9.50
2019-02-18T00:08:53.656Z,9.60
2019-02-18T00:11:24.077Z,9.50
2019-02-18T00:13:54.219Z,9.50
2019-02-18T00:16:25.081Z,9.20
2019-02-18T00:18:55.431Z,9.50
2019-02-18T00:21:25.719Z,9.40
2019-02-18T00:23:56.152Z,9.00
2019-02-18T00:26:26.035Z,9.20
2019-02-18T00:28:56.379Z,8.90
2019-02-18T00:31:27.177Z,8.80
2019-02-18T00:33:57.160Z,8.60
2019-02-18T00:36:26.987Z,8.40
2019-02-18T00:38:56.905Z,8.50
2019-02-18T00:41:27.064Z,8.70
2019-02-18T00:43:57.474Z,8.60
2019-02-18T00:46:27.559Z,8.20
2019-02-18T00:48:57.776Z,8.30
2019-02-18T00:51:27.943Z,8.30
2019-02-18T00:53:57.599Z,8.10
2019-02-18T00:56:27.686Z,8.10
2019-02-18T00:58:57.944Z,7.90
2019-02-18T01:03:59.462Z,7.60
2019-02-18T01:06:29.821Z,7.90
2019-02-18T01:09:00.329Z,8.20
2019-02-18T01:11:30.415Z,7.90
2019-02-18T01:14:00.504Z,7.90
2019-02-18T01:16:31.036Z,7.90
2019-02-18T01:19:01.308Z,7.90
2019-02-18T01:21:31.559Z,7.60
2019-02-18T01:24:01.513Z,7.70
2019-02-18T01:26:31.274Z,7.70
2019-02-18T01:29:01.405Z,7.80
2019-02-18T01:31:31.540Z,7.60
2019-02-18T01:34:13.376Z,7.70
2019-02-18T01:36:43.673Z,8.20
2019-02-18T01:39:13.858Z,7.60
2019-02-18T01:41:43.839Z,7.60
2019-02-18T01:44:14.248Z,7.70
2019-02-18T01:46:44.266Z,7.50
2019-02-18T01:49:14.584Z,7.60
2019-02-18T01:51:44.476Z,7.60
2019-02-18T01:54:16.558Z,7.40
2019-02-18T01:56:46.976Z,7.30
2019-02-18T01:59:17.120Z,7.40
2019-02-18T02:01:47.970Z,7.40
2019-02-18T02:04:18.901Z,7.20
2019-02-18T02:06:49.001Z,7.30
2019-02-18T02:09:19.332Z,7.20
2019-02-18T02:11:49.808Z,7.10
2019-02-18T02:14:19.626Z,7.20
2019-02-18T02:16:49.877Z,7.20
2019-02-18T02:19:20.189Z,7.10
2019-02-18T02:21:50.496Z,6.90
2019-02-18T02:24:21.629Z,6.60
2019-02-18T02:26:52.971Z,6.50
2019-02-18T02:29:22.957Z,6.60
2019-02-18T02:31:53.349Z,6.70
2019-02-18T02:34:24.184Z,6.70
2019-02-18T02:36:54.258Z,6.70
2019-02-18T02:39:24.895Z,6.70
2019-02-18T02:41:55.834Z,6.70
2019-02-18T02:44:26.208Z,6.90
2019-02-18T02:46:56.367Z,6.90
2019-02-18T02:49:26.690Z,7.10
2019-02-18T02:51:56.695Z,7.30
2019-02-18T02:54:27.605Z,7.10
2019-02-18T02:56:57.955Z,6.90
2019-02-18T02:59:28.031Z,6.90
2019-02-18T03:01:57.926Z,6.90
2019-02-18T03:04:28.148Z,7.00
2019-02-18T03:06:58.227Z,7.10
2019-02-18T03:09:28.512Z,6.90
2019-02-18T03:11:58.587Z,7.10
2019-02-18T03:14:28.345Z,7.30
2019-02-18T03:16:58.875Z,7.40
2019-02-18T03:19:29.443Z,7.00
2019-02-18T03:21:59.563Z,6.90
2019-02-18T03:24:29.420Z,6.60
2019-02-18T03:26:59.451Z,6.80
2019-02-18T03:30:20.589Z,6.80
2019-02-18T03:32:56.234Z,6.80
2019-02-18T03:35:26.282Z,6.80
2019-02-18T03:37:56.408Z,7.00
2019-02-18T03:40:27.286Z,6.80
2019-02-18T03:42:57.759Z,6.90
2019-02-18T03:45:27.659Z,6.80
2019-02-18T03:47:57.810Z,6.70
2019-02-18T03:50:28.071Z,6.60
2019-02-18T03:52:58.087Z,6.60
2019-02-18T03:55:29.501Z,6.60
2019-02-18T03:58:00.576Z,6.50
2019-02-18T04:00:30.615Z,6.00
2019-02-18T04:03:00.639Z,5.90
2019-02-18T04:05:31.028Z,6.50
2019-02-18T04:08:01.793Z,6.40
2019-02-18T04:10:32.355Z,6.50
2019-02-18T04:13:03.267Z,6.40
2019-02-18T04:15:33.279Z,6.60
2019-02-18T04:18:03.214Z,6.50
2019-02-18T04:20:33.588Z,6.30
2019-02-18T04:23:04.139Z,6.30
2019-02-18T04:25:34.300Z,5.60
2019-02-18T04:28:04.844Z,5.80
2019-02-18T04:30:35.288Z,6.00
2019-02-18T04:33:06.013Z,6.30
2019-02-18T04:35:36.458Z,6.40
2019-02-18T04:38:06.336Z,6.50
2019-02-18T04:40:36.362Z,6.60
2019-02-18T04:43:06.283Z,6.40
2019-02-18T04:45:36.106Z,6.30
2019-02-18T04:48:06.174Z,6.20
2019-02-18T04:50:35.772Z,6.30
2019-02-18T04:53:06.114Z,6.20
2019-02-18T04:55:37.094Z,6.20
2019-02-18T04:58:07.319Z,6.30
2019-02-18T05:00:37.702Z,5.90
2019-02-18T05:03:08.246Z,5.90
2019-02-18T05:05:51.684Z,6.00
2019-02-18T05:08:22.484Z,5.70
2019-02-18T05:10:52.909Z,6.00
2019-02-18T05:13:25.553Z,6.10
2019-02-18T05:15:55.289Z,6.20
2019-02-18T05:18:26.356Z,6.10
2019-02-18T05:20:57.500Z,6.00
2019-02-18T05:23:28.097Z,5.80
2019-02-18T05:26:00.033Z,5.30
2019-02-18T05:28:30.702Z,5.00
2019-02-18T05:31:01.199Z,5.20
2019-02-18T05:33:31.182Z,5.40
2019-02-18T05:36:01.945Z,5.30
2019-02-18T05:38:33.034Z,5.40
2019-02-18T05:41:02.835Z,5.40
2019-02-18T05:43:33.297Z,5.20
2019-02-18T05:46:03.277Z,5.20
2019-02-18T05:48:34.294Z,5.10
2019-02-18T05:51:05.913Z,5.20
2019-02-18T05:53:57.075Z,5.40
2019-02-18T05:56:27.497Z,5.50
2019-02-18T05:58:58.240Z,5.40
2019-02-18T06:01:29.117Z,5.40
2019-02-18T06:04:00.182Z,5.00
2019-02-18T06:06:30.326Z,4.80
2019-02-18T06:09:04.317Z,4.90
2019-02-18T06:11:34.524Z,5.20
2019-02-18T06:14:04.299Z,5.60
2019-02-18T06:16:34.629Z,5.60
2019-02-18T06:19:05.180Z,5.60
2019-02-18T06:21:35.416Z,5.20
2019-02-18T06:24:06.007Z,5.40
2019-02-18T06:26:35.740Z,5.30
2019-02-18T06:29:06.220Z,5.20
2019-02-18T06:31:35.583Z,5.30
2019-02-18T06:34:05.944Z,5.40
2019-02-18T06:36:36.101Z,5.40
2019-02-18T06:39:06.800Z,5.40
2019-02-18T06:41:36.774Z,5.30
2019-02-18T06:44:06.952Z,5.50
2019-02-18T06:46:45.309Z,5.60
2019-02-18T06:49:18.279Z,5.30
2019-02-18T06:51:47.546Z,5.70
2019-02-18T06:54:17.664Z,5.50
2019-02-18T06:56:58.102Z,5.90
2019-02-18T06:59:32.382Z,6.20
2019-02-18T07:02:24.370Z,6.20
2019-02-18T07:07:53.835Z,6.00
2019-02-18T07:10:43.516Z,5.90
2019-02-18T07:13:14.276Z,6.20
2019-02-18T07:15:44.299Z,6.30
2019-02-18T07:18:14.594Z,6.70
2019-02-18T07:20:44.360Z,6.60
2019-02-18T07:23:14.904Z,6.60
2019-02-18T07:25:46.614Z,7.10
2019-02-18T07:28:16.855Z,7.20
2019-02-18T07:30:46.760Z,7.50
2019-02-18T07:33:20.434Z,7.50
2019-02-18T07:35:50.459Z,7.50
2019-02-18T07:38:20.871Z,7.80
2019-02-18T07:40:50.910Z,8.00
2019-02-18T07:43:23.070Z,8.20
2019-02-18T07:45:53.548Z,8.40
2019-02-18T07:48:23.562Z,8.40
2019-02-18T07:50:53.722Z,8.50
2019-02-18T07:53:23.656Z,8.60
2019-02-18T07:55:54.365Z,8.80
2019-02-18T07:58:24.172Z,8.90
2019-02-18T08:00:54.534Z,8.70
2019-02-18T08:03:24.998Z,8.80
2019-02-18T08:05:55.039Z,8.90
2019-02-18T08:08:26.517Z,9.10
2019-02-18T08:10:56.810Z,9.00
2019-02-18T08:13:27.971Z,9.10
2019-02-18T08:15:58.113Z,9.30
2019-02-18T08:18:28.334Z,9.40
2019-02-18T08:20:59.339Z,9.60
2019-02-18T08:23:29.348Z,9.80
2019-02-18T08:26:00.039Z,9.70
2019-02-18T08:28:31.225Z,9.90
2019-02-18T08:31:01.411Z,10.10
2019-02-18T08:33:31.176Z,10.00
2019-02-18T08:36:01.682Z,10.10
2019-02-18T08:38:31.504Z,10.30
2019-02-18T08:41:01.713Z,10.40
2019-02-18T08:43:32.090Z,10.50
2019-02-18T08:46:02.424Z,10.60
2019-02-18T08:48:32.355Z,10.60
2019-02-18T08:51:02.066Z,10.70
2019-02-18T08:53:31.851Z,10.80
2019-02-18T08:56:02.328Z,10.80
2019-02-18T08:58:33.658Z,10.80
2019-02-18T09:01:03.748Z,10.80
2019-02-18T09:03:34.304Z,10.90
2019-02-18T09:06:04.420Z,10.70
2019-02-18T09:08:35.102Z,10.90
2019-02-18T09:11:05.395Z,11.10
2019-02-18T09:13:36.118Z,11.40
2019-02-18T09:16:06.195Z,11.20
2019-02-18T09:18:36.583Z,11.40
2019-02-18T09:21:07.198Z,11.50
2019-02-18T09:24:06.727Z,11.90
2019-02-18T09:26:36.944Z,11.70
2019-02-18T09:29:07.348Z,11.60
2019-02-18T09:31:37.423Z,11.70
2019-02-18T09:34:07.554Z,11.70
2019-02-18T09:36:37.552Z,12.00
2019-02-18T09:39:15.612Z,11.90
2019-02-18T09:41:45.960Z,12.10
2019-02-18T09:44:16.271Z,12.10
2019-02-18T09:46:46.412Z,12.10
2019-02-18T09:49:15.887Z,12.30
2019-02-18T09:51:46.496Z,12.50
2019-02-18T09:54:16.651Z,12.50
2019-02-18T09:56:46.531Z,12.70
2019-02-18T09:59:16.637Z,12.70
2019-02-18T10:01:47.101Z,12.60
2019-02-18T10:04:17.669Z,12.80
2019-02-18T10:06:48.271Z,13.00
2019-02-18T10:09:18.829Z,13.30
2019-02-18T10:11:49.107Z,13.20
2019-02-18T10:14:22.312Z,13.30
2019-02-18T10:16:52.590Z,13.10
2019-02-18T10:19:22.722Z,13.20
2019-02-18T10:21:53.068Z,13.40
2019-02-18T10:24:23.096Z,13.50
2019-02-18T10:26:53.772Z,13.40
2019-02-18T10:29:23.774Z,13.50
2019-02-18T10:31:54.259Z,13.50
2019-02-18T10:34:24.200Z,13.50
2019-02-18T10:36:54.529Z,13.70
2019-02-18T10:39:24.644Z,13.90
2019-02-18T10:41:54.464Z,14.20
2019-02-18T10:44:25.539Z,14.30
2019-02-18T10:46:56.032Z,14.40
2019-02-18T10:49:26.370Z,14.10
2019-02-18T10:51:56.387Z,14.40
2019-02-18T10:54:27.362Z,14.50
2019-02-18T10:56:57.655Z,14.70
2019-02-18T10:59:28.462Z,14.60
2019-02-18T11:01:58.646Z,14.50
2019-02-18T11:04:30.553Z,14.80
2019-02-18T11:07:00.748Z,15.20
2019-02-18T11:09:30.998Z,14.80
2019-02-18T11:12:04.017Z,14.90
2019-02-18T11:14:34.521Z,15.00
2019-02-18T11:17:04.974Z,15.40
2019-02-18T11:19:35.368Z,15.20
2019-02-18T11:22:05.844Z,15.10
2019-02-18T11:24:36.605Z,15.60
2019-02-18T11:27:07.166Z,16.00
2019-02-18T11:29:37.888Z,15.30
2019-02-18T11:32:08.104Z,16.10
2019-02-18T11:34:38.144Z,16.50
2019-02-18T11:37:08.417Z,16.40
2019-02-18T11:39:38.423Z,16.50
2019-02-18T11:42:09.172Z,16.70
2019-02-18T11:44:39.516Z,17.00
2019-02-18T11:47:09.577Z,17.30
2019-02-18T11:49:39.816Z,16.00
2019-02-18T11:52:10.380Z,16.30
2019-02-18T11:54:40.219Z,16.90
2019-02-18T11:57:10.602Z,16.70
2019-02-18T11:59:41.631Z,16.80
2019-02-18T12:02:11.702Z,16.40
2019-02-18T12:04:42.412Z,16.80
2019-02-18T12:07:12.314Z,17.50
2019-02-18T12:09:42.629Z,17.80
2019-02-18T12:12:12.673Z,17.50
2019-02-18T12:14:42.861Z,17.50
2019-02-18T12:17:20.241Z,17.60
2019-02-18T12:19:45.469Z,17.40
2019-02-18T12:22:16.069Z,17.20
2019-02-18T12:24:46.641Z,17.50
2019-02-18T12:27:17.203Z,17.90
2019-02-18T12:29:47.738Z,18.30
2019-02-18T12:32:39.209Z,18.40
2019-02-18T12:35:09.589Z,18.20
2019-02-18T12:37:39.543Z,18.20
2019-02-18T12:40:12.442Z,17.90
2019-02-18T12:42:44.419Z,17.80
2019-02-18T12:45:15.442Z,18.20
2019-02-18T12:47:45.933Z,19.00
2019-02-18T12:50:15.940Z,18.80
2019-02-18T12:52:46.257Z,18.50
2019-02-18T12:55:16.881Z,18.60
2019-02-18T12:57:47.739Z,18.20
2019-02-18T13:00:18.789Z,17.60
2019-02-18T13:02:48.479Z,17.70
2019-02-18T13:05:19.441Z,18.50
2019-02-18T13:07:49.502Z,18.70
2019-02-18T13:10:20.654Z,19.00
2019-02-18T13:12:51.476Z,19.30
2019-02-18T13:15:22.101Z,19.20
2019-02-18T13:17:52.353Z,18.60
2019-02-18T13:20:22.142Z,18.80
2019-02-18T13:22:52.813Z,18.50
2019-02-18T13:25:22.551Z,18.20
2019-02-18T13:27:53.058Z,18.00
2019-02-18T13:30:23.400Z,18.40
2019-02-18T13:32:53.235Z,18.80
2019-02-18T13:35:23.375Z,19.00
2019-02-18T13:37:53.513Z,19.20
2019-02-18T13:40:24.231Z,19.50
2019-02-18T13:42:54.755Z,20.00
2019-02-18T13:45:26.819Z,19.50
2019-02-18T13:47:58.901Z,18.70
2019-02-18T13:50:30.854Z,18.90
2019-02-18T13:53:00.779Z,19.60
2019-02-18T13:55:29.815Z,19.50
2019-02-18T13:58:01.042Z,20.00
2019-02-18T14:00:32.331Z,19.70
2019-02-18T14:03:01.985Z,18.90
2019-02-18T14:05:33.230Z,19.20
2019-02-18T14:08:03.659Z,19.10
2019-02-18T14:10:34.317Z,19.10
2019-02-18T14:13:04.597Z,18.50
2019-02-18T14:15:34.714Z,19.80
2019-02-18T14:18:05.985Z,19.10
2019-02-18T14:20:35.802Z,19.10
2019-02-18T14:23:06.116Z,18.80
2019-02-18T14:25:36.105Z,18.80
2019-02-18T14:28:06.297Z,18.80
2019-02-18T14:30:36.567Z,18.90
2019-02-18T14:33:06.543Z,18.30
2019-02-18T14:35:36.378Z,18.20
2019-02-18T14:38:06.830Z,18.70
2019-02-18T14:40:36.999Z,19.50
2019-02-18T14:43:07.009Z,19.10
2019-02-18T14:45:37.367Z,19.30
2019-02-18T14:48:08.939Z,18.40
2019-02-18T14:50:39.385Z,19.30
2019-02-18T14:53:09.313Z,18.90
2019-02-18T14:55:39.735Z,18.50
2019-02-18T14:58:10.448Z,19.10
2019-02-18T15:00:41.194Z,18.50
2019-02-18T15:03:11.676Z,18.00
2019-02-18T15:05:41.708Z,18.30
2019-02-18T15:08:12.071Z,18.40
2019-02-18T15:10:41.910Z,17.80
2019-02-18T15:13:11.758Z,17.90
2019-02-18T15:15:41.525Z,17.90
2019-02-18T15:18:11.253Z,18.00
2019-02-18T15:20:41.194Z,18.00
2019-02-18T15:23:11.379Z,18.40
2019-02-18T15:25:40.871Z,18.30
2019-02-18T15:28:10.695Z,18.10
2019-02-18T15:30:41.004Z,18.20
2019-02-18T15:33:10.873Z,17.80
2019-02-18T15:35:41.656Z,17.00
2019-02-18T15:38:11.786Z,17.30
2019-02-18T15:40:42.803Z,16.90
2019-02-18T15:43:13.629Z,17.10
2019-02-18T15:45:44.564Z,17.30
2019-02-18T15:48:15.585Z,17.30
2019-02-18T15:50:45.495Z,17.50
2019-02-18T15:53:15.696Z,17.60
2019-02-18T15:55:45.839Z,17.60
2019-02-18T15:58:16.556Z,17.30
2019-02-18T16:00:47.042Z,16.60
2019-02-18T16:03:17.592Z,16.60
2019-02-18T16:05:48.060Z,16.70
2019-02-18T16:08:18.323Z,16.80
2019-02-18T16:10:48.804Z,16.70
2019-02-18T16:13:18.924Z,16.10
2019-02-18T16:15:49.463Z,15.80
2019-02-18T16:18:19.502Z,15.40
2019-02-18T16:20:51.085Z,15.30
2019-02-18T16:23:21.216Z,15.10
2019-02-18T16:25:51.268Z,14.90
2019-02-18T16:28:21.140Z,14.90
2019-02-18T16:30:51.673Z,14.90
2019-02-18T16:33:21.746Z,15.00
2019-02-18T16:35:51.441Z,14.80
2019-02-18T16:38:21.447Z,14.60
2019-02-18T16:40:51.251Z,14.40
2019-02-18T16:43:21.932Z,14.20
2019-02-18T16:45:52.000Z,14.00
2019-02-18T16:48:22.433Z,13.90
2019-02-18T16:50:52.349Z,13.80
2019-02-18T16:53:22.553Z,13.70
2019-02-18T16:55:52.916Z,14.00
2019-02-18T16:58:23.084Z,13.90
2019-02-18T17:00:57.696Z,13.80
2019-02-18T17:03:26.322Z,13.80
2019-02-18T17:05:56.886Z,13.40
2019-02-18T17:08:28.332Z,13.40
2019-02-18T17:10:58.767Z,13.40
2019-02-18T17:13:34.326Z,13.30
2019-02-18T17:16:05.629Z,13.20
2019-02-18T17:18:36.026Z,13.40
2019-02-18T17:21:11.360Z,13.40
2019-02-18T17:23:41.831Z,13.40
2019-02-18T17:26:12.001Z,13.20
2019-02-18T17:28:42.235Z,13.20
2019-02-18T17:31:12.943Z,13.10
2019-02-18T17:33:43.351Z,13.00
2019-02-18T17:36:13.962Z,13.10
2019-02-18T17:38:44.478Z,13.00
2019-02-18T17:41:14.985Z,12.70
2019-02-18T17:43:45.637Z,12.50
2019-02-18T17:46:16.409Z,12.60
2019-02-18T17:48:47.319Z,12.50
2019-02-18T17:51:17.665Z,12.60
2019-02-18T17:53:55.891Z,12.30
2019-02-18T17:56:26.450Z,12.40
2019-02-18T17:58:56.740Z,12.20
2019-02-18T18:01:27.572Z,12.30
2019-02-18T18:03:59.012Z,12.20
2019-02-18T18:06:29.895Z,12.00
2019-02-18T18:09:00.633Z,12.00
2019-02-18T18:11:32.161Z,11.70
2019-02-18T18:14:03.529Z,11.70
2019-02-18T18:16:35.748Z,11.70
2019-02-18T18:19:09.525Z,11.60
2019-02-18T18:21:40.614Z,11.50
2019-02-18T18:24:11.252Z,11.50
2019-02-18T18:26:42.286Z,11.30
2019-02-18T18:29:13.189Z,11.10
2019-02-18T18:31:43.798Z,11.30
2019-02-18T18:34:16.387Z,11.10
2019-02-18T18:36:47.463Z,11.00
2019-02-18T18:39:18.191Z,10.90
2019-02-18T18:41:48.918Z,10.70
2019-02-18T18:44:19.851Z,10.60
2019-02-18T18:46:50.695Z,10.70
2019-02-18T18:49:21.725Z,10.80
2019-02-18T18:51:53.023Z,10.80
2019-02-18T18:54:24.356Z,10.60
2019-02-18T18:56:55.362Z,10.60
2019-02-18T18:59:26.021Z,10.60
2019-02-18T19:01:59.665Z,10.60
2019-02-18T19:04:30.110Z,10.50
2019-02-18T19:07:02.136Z,10.50
2019-02-18T19:09:33.069Z,10.40
2019-02-18T19:12:04.179Z,10.40
2019-02-18T19:14:35.439Z,10.30
2019-02-18T19:17:06.778Z,10.20
2019-02-18T19:19:37.877Z,10.10
2019-02-18T19:22:10.851Z,9.90
2019-02-18T19:24:42.852Z,9.80
2019-02-18T19:27:14.400Z,10.10
2019-02-18T19:29:45.035Z,10.60
2019-02-18T19:32:16.336Z,10.10
2019-02-18T19:34:47.291Z,10.20
2019-02-18T19:37:18.067Z,10.20
2019-02-18T19:39:49.095Z,10.00
2019-02-18T19:42:19.805Z,10.00
2019-02-18T19:44:50.877Z,10.00
2019-02-18T19:47:21.900Z,10.20
2019-02-18T19:49:53.008Z,10.20
